Time;durP1;ratioP1;P1;durP2;ratioP2;P2;SDS_P1;SDS_P2;PMS_P1;PMS_P2;Temp;Humidity;BMP_temperature;BMP_pressure;BME280_temperature;BME280_humidity;BME280_pressure;Samples;Min_cycle;Max_cycle;Signal;HPM_P1;HPM_P2
2023/06/02 00:00:39;;;;;;;14.68;2.30;;;;;;;;;;5011957;28;20038;-58
2023/06/02 00:03:05;;;;;;;10.35;3.30;;;;;;;;;;5012252;28;20072;-59
2023/06/02 00:05:32;;;;;;;13.48;2.72;;;;;;;;;;5011900;28;20061;-58
2023/06/02 00:07:58;;;;;;;16.20;3.45;;;;;;;;;;5011835;28;20128;-58
2023/06/02 00:10:25;;;;;;;9.95;2.33;;;;;;;;;;4994424;28;20081;-58
2023/06/02 00:12:51;;;;;;;19.10;2.42;;;;;;;;;;5012279;28;20406;-58
2023/06/02 00:15:17;;;;;;;11.20;2.30;;;;;;;;;;5011977;28;20053;-58
2023/06/02 00:17:43;;;;;;;15.52;2.75;;;;;;;;;;5012103;28;20049;-58
2023/06/02 00:20:10;;;;;;;15.27;3.17;;;;;;;;;;5011915;28;20092;-58
2023/06/02 00:22:38;;;;;;;12.50;3.53;;;;;;;;;;5011604;28;20042;-58
2023/06/02 00:25:04;;;;;;;15.73;2.75;;;;;;;;;;5012135;28;20049;-58
2023/06/02 00:27:30;;;;;;;17.35;3.67;;;;;;;;;;5011894;28;20050;-59
2023/06/02 00:29:56;;;;;;;14.38;2.72;;;;;;;;;;5012036;28;20046;-58
2023/06/02 00:32:22;;;;;;;14.10;3.13;;;;;;;;;;5011714;28;20568;-59
2023/06/02 00:34:48;;;;;;;9.85;1.90;;;;;;;;;;5011873;28;20061;-59
2023/06/02 00:37:14;;;;;;;17.38;2.45;;;;;;;;;;5011518;28;20128;-58
2023/06/02 00:39:40;;;;;;;13.73;2.05;;;;;;;;;;5011751;28;20049;-58
2023/06/02 00:42:07;;;;;;;17.55;3.67;;;;;;;;;;5012025;28;20049;-58
2023/06/02 00:44:33;;;;;;;10.02;2.50;;;;;;;;;;4994291;28;20157;-58
2023/06/02 00:46:59;;;;;;;11.70;2.28;;;;;;;;;;5010649;28;20068;-58
2023/06/02 00:49:25;;;;;;;8.57;2.65;;;;;;;;;;4997604;28;20050;-59
2023/06/02 00:51:52;;;;;;;12.68;2.50;;;;;;;;;;5015425;28;20050;-58
2023/06/02 00:54:19;;;;;;;9.10;2.25;;;;;;;;;;5015212;28;20050;-58
2023/06/02 00:56:46;;;;;;;9.20;2.28;;;;;;;;;;5014333;28;20445;-58
2023/06/02 00:59:12;;;;;;;10.63;2.30;;;;;;;;;;4997805;28;20042;-59
2023/06/02 01:01:38;;;;;;;10.93;2.30;;;;;;;;;;4997643;28;20488;-58
2023/06/02 01:04:05;;;;;;;11.63;2.58;;;;;;;;;;5015302;28;20057;-58
2023/06/02 01:06:37;;;;;;;20.10;2.38;;;;;;;;;;5014952;28;20165;-59
2023/06/02 01:09:05;;;;;;;14.55;2.42;;;;;;;;;;4997860;28;20081;-58
2023/06/02 01:11:32;;;;;;;14.85;2.60;;;;;;;;;;5015029;28;20054;-59
2023/06/02 01:13:58;;;;;;;15.80;3.20;;;;;;;;;;5015103;28;20074;-58
2023/06/02 01:16:26;;;;;;;13.52;2.83;;;;;;;;;;4997632;28;20050;-58
2023/06/02 01:18:53;;;;;;;14.77;2.78;;;;;;;;;;5015063;28;20053;-58
2023/06/02 01:21:23;;;;;;;15.48;2.72;;;;;;;;;;5014548;28;20042;-58
2023/06/02 01:23:59;;;;;;;13.18;2.28;;;;;;;;;;4997636;28;20107;-58
2023/06/02 01:26:25;;;;;;;13.75;2.45;;;;;;;;;;5014706;28;20061;-58
2023/06/02 01:28:51;;;;;;;15.70;2.92;;;;;;;;;;5014824;28;20041;-58
2023/06/02 01:31:26;;;;;;;8.30;2.10;;;;;;;;;;5014790;28;20137;-58
2023/06/02 01:33:57;;;;;;;15.75;2.53;;;;;;;;;;5013855;28;20061;-58
2023/06/02 01:36:24;;;;;;;15.40;3.05;;;;;;;;;;5014208;28;20104;-58
2023/06/02 01:38:50;;;;;;;11.25;2.22;;;;;;;;;;4997058;28;20042;-58
2023/06/02 01:41:17;;;;;;;16.10;2.85;;;;;;;;;;5014318;28;20053;-58
2023/06/02 01:43:44;;;;;;;21.67;2.75;;;;;;;;;;5014559;28;20065;-59
2023/06/02 01:46:10;;;;;;;18.35;3.80;;;;;;;;;;5014657;28;20394;-58
2023/06/02 01:48:36;;;;;;;12.88;2.15;;;;;;;;;;5014447;28;20057;-58
2023/06/02 01:51:02;;;;;;;14.57;2.55;;;;;;;;;;5014187;28;20054;-58
2023/06/02 01:53:28;;;;;;;12.52;3.08;;;;;;;;;;5014088;28;20137;-59
2023/06/02 01:55:54;;;;;;;14.38;2.72;;;;;;;;;;4996711;28;20056;-59
2023/06/02 01:58:21;;;;;;;14.68;2.78;;;;;;;;;;5013813;28;20046;-58
2023/06/02 02:00:47;;;;;;;13.82;2.42;;;;;;;;;;5014517;28;20056;-58
2023/06/02 02:03:13;;;;;;;14.95;2.78;;;;;;;;;;4996501;28;20058;-62
2023/06/02 02:05:39;;;;;;;8.77;2.60;;;;;;;;;;4996308;28;20070;-58
2023/06/02 02:08:07;;;;;;;12.55;2.63;;;;;;;;;;5014055;28;20081;-58
2023/06/02 02:10:33;;;;;;;9.45;2.20;;;;;;;;;;5013714;28;20050;-59
2023/06/02 02:12:59;;;;;;;15.57;2.22;;;;;;;;;;4996725;28;20044;-58
2023/06/02 02:15:27;;;;;;;15.63;2.20;;;;;;;;;;5012742;28;20046;-58
2023/06/02 02:17:56;;;;;;;17.90;2.33;;;;;;;;;;5014022;28;20092;-58
2023/06/02 02:20:22;;;;;;;14.02;2.13;;;;;;;;;;5013226;28;20053;-58
2023/06/02 02:22:48;;;;;;;21.98;4.55;;;;;;;;;;5013713;28;20536;-59
2023/06/02 02:25:15;;;;;;;9.00;2.65;;;;;;;;;;5013428;28;20406;-59
2023/06/02 02:27:41;;;;;;;16.13;2.38;;;;;;;;;;4996676;28;20065;-58
2023/06/02 02:30:07;;;;;;;15.63;2.47;;;;;;;;;;4996554;28;20470;-58
2023/06/02 02:32:37;;;;;;;13.27;2.42;;;;;;;;;;5013545;28;20072;-57
2023/06/02 02:35:04;;;;;;;12.85;2.75;;;;;;;;;;5012042;28;20042;-58
2023/06/02 02:37:30;;;;;;;16.02;2.60;;;;;;;;;;4996285;28;20505;-57
2023/06/02 02:39:56;;;;;;;10.88;2.10;;;;;;;;;;4995803;28;20464;-57
2023/06/02 02:42:22;;;;;;;12.20;2.55;;;;;;;;;;5013520;28;20053;-58
2023/06/02 02:44:48;;;;;;;11.55;3.58;;;;;;;;;;5012270;28;20544;-58
2023/06/02 02:47:14;;;;;;;13.55;2.22;;;;;;;;;;5012872;28;20512;-58
2023/06/02 02:49:40;;;;;;;12.27;2.10;;;;;;;;;;5013359;28;20046;-57
2023/06/02 02:52:07;;;;;;;12.77;2.88;;;;;;;;;;4995948;28;20050;-58
2023/06/02 02:54:33;;;;;;;19.08;3.08;;;;;;;;;;5012973;28;20440;-58
2023/06/02 02:57:00;;;;;;;15.10;2.88;;;;;;;;;;5013402;28;20081;-58
2023/06/02 02:59:27;;;;;;;12.10;2.53;;;;;;;;;;5013022;28;20125;-58
2023/06/02 03:01:53;;;;;;;13.60;3.00;;;;;;;;;;4995312;28;20065;-58
2023/06/02 03:04:22;;;;;;;10.10;2.00;;;;;;;;;;5012902;28;20572;-58
2023/06/02 03:06:49;;;;;;;12.93;2.80;;;;;;;;;;5013000;28;20060;-58
2023/06/02 03:09:16;;;;;;;12.65;1.85;;;;;;;;;;5012975;28;20045;-58
2023/06/02 03:11:42;;;;;;;12.10;2.20;;;;;;;;;;5012453;28;20466;-58
2023/06/02 03:14:08;;;;;;;18.48;2.22;;;;;;;;;;5012840;28;20391;-58
2023/06/02 03:16:34;;;;;;;17.40;3.58;;;;;;;;;;5012408;28;20046;-58
2023/06/02 03:19:02;;;;;;;12.98;2.35;;;;;;;;;;5012771;28;20046;-58
2023/06/02 03:21:31;;;;;;;18.95;2.42;;;;;;;;;;5010968;28;20100;-58
2023/06/02 03:24:01;;;;;;;15.63;2.88;;;;;;;;;;5012674;28;20427;-58
2023/06/02 03:26:27;;;;;;;18.60;2.80;;;;;;;;;;5012323;28;20490;-58
2023/06/02 03:28:53;;;;;;;11.90;2.15;;;;;;;;;;5012583;28;20513;-59
2023/06/02 03:31:19;;;;;;;16.40;2.42;;;;;;;;;;5011903;28;20132;-58
2023/06/02 03:33:46;;;;;;;13.43;2.70;;;;;;;;;;5011369;28;20068;-58
2023/06/02 03:36:13;;;;;;;10.80;2.38;;;;;;;;;;5012393;28;20506;-58
2023/06/02 03:38:39;;;;;;;18.52;2.78;;;;;;;;;;4995275;28;20449;-58
2023/06/02 03:41:05;;;;;;;12.43;2.35;;;;;;;;;;5012533;28;20486;-58
2023/06/02 03:43:31;;;;;;;13.10;2.60;;;;;;;;;;5012292;28;20050;-58
2023/06/02 03:45:57;;;;;;;12.38;2.75;;;;;;;;;;5012087;28;20130;-58
2023/06/02 03:48:23;;;;;;;20.52;2.45;;;;;;;;;;5012032;28;20189;-58
2023/06/02 03:50:49;;;;;;;11.38;1.80;;;;;;;;;;5012293;28;20050;-58
2023/06/02 03:53:15;;;;;;;13.57;2.42;;;;;;;;;;5011020;28;20132;-59
2023/06/02 03:55:41;;;;;;;14.73;3.55;;;;;;;;;;5012375;28;20085;-57
2023/06/02 03:58:07;;;;;;;11.45;2.40;;;;;;;;;;5012324;28;20394;-57
2023/06/02 04:00:33;;;;;;;15.38;2.60;;;;;;;;;;5011614;28;20048;-58
2023/06/02 04:03:00;;;;;;;18.45;2.83;;;;;;;;;;5012023;28;20069;-58
2023/06/02 04:05:26;;;;;;;15.23;3.22;;;;;;;;;;5010779;28;20509;-58
2023/06/02 04:07:52;;;;;;;12.90;2.33;;;;;;;;;;4995151;28;20057;-58
2023/06/02 04:10:18;;;;;;;10.85;2.40;;;;;;;;;;5010851;28;20042;-58
2023/06/02 04:12:44;;;;;;;11.43;2.30;;;;;;;;;;5012103;28;20504;-57
2023/06/02 04:15:10;;;;;;;15.20;2.45;;;;;;;;;;5011773;28;20046;-58
2023/06/02 04:17:37;;;;;;;11.38;2.10;;;;;;;;;;5010536;28;20077;-58
2023/06/02 04:20:04;;;;;;;13.25;3.80;;;;;;;;;;4994603;28;20053;-58
2023/06/02 04:22:30;;;;;;;18.08;2.45;;;;;;;;;;5014185;28;20072;-58
2023/06/02 04:24:56;;;;;;;11.55;2.70;;;;;;;;;;5016157;28;20116;-59
2023/06/02 04:27:22;;;;;;;10.00;2.58;;;;;;;;;;5015726;28;20046;-58
2023/06/02 04:29:50;;;;;;;18.08;3.17;;;;;;;;;;5015718;28;20077;-58
2023/06/02 04:32:16;;;;;;;12.90;2.67;;;;;;;;;;5015528;28;20046;-58
2023/06/02 04:34:42;;;;;;;19.70;3.08;;;;;;;;;;5016094;28;20046;-59
2023/06/02 04:37:08;;;;;;;13.05;2.95;;;;;;;;;;4998732;28;20061;-58
2023/06/02 04:39:35;;;;;;;20.55;3.00;;;;;;;;;;4998028;28;20082;-58
2023/06/02 04:42:03;;;;;;;15.25;3.17;;;;;;;;;;5015860;28;20120;-58
2023/06/02 04:44:29;;;;;;;20.95;2.42;;;;;;;;;;5015135;28;20046;-58
2023/06/02 04:46:55;;;;;;;15.88;3.53;;;;;;;;;;5015570;28;20042;-59
2023/06/02 04:49:21;;;;;;;22.55;2.90;;;;;;;;;;5015524;28;20096;-58
2023/06/02 04:51:47;;;;;;;12.48;2.85;;;;;;;;;;5015675;28;20092;-58
2023/06/02 04:54:15;;;;;;;23.17;3.00;;;;;;;;;;4997941;28;20538;-60
2023/06/02 04:56:42;;;;;;;18.73;2.80;;;;;;;;;;5015603;28;20082;-58
2023/06/02 04:59:08;;;;;;;19.90;2.60;;;;;;;;;;4997562;28;20064;-59
2023/06/02 05:01:34;;;;;;;12.82;2.90;;;;;;;;;;5014887;28;20045;-59
2023/06/02 05:04:01;;;;;;;14.43;2.95;;;;;;;;;;5015295;28;20100;-58
2023/06/02 05:06:27;;;;;;;16.75;3.00;;;;;;;;;;5015128;28;20064;-58
2023/06/02 05:08:53;;;;;;;15.02;2.75;;;;;;;;;;5015320;28;20057;-58
2023/06/02 05:11:19;;;;;;;16.73;3.22;;;;;;;;;;5014937;28;20046;-59
2023/06/02 05:13:45;;;;;;;25.73;18.77;;;;;;;;;;5014842;28;20049;-58
2023/06/02 05:16:12;;;;;;;32.08;14.40;;;;;;;;;;4997749;28;20056;-58
2023/06/02 05:18:38;;;;;;;27.38;14.27;;;;;;;;;;5015117;28;20061;-59
2023/06/02 05:21:05;;;;;;;12.38;5.35;;;;;;;;;;5015089;28;20046;-59
2023/06/02 05:23:31;;;;;;;23.58;4.05;;;;;;;;;;5014770;28;20053;-58
2023/06/02 05:25:57;;;;;;;20.33;2.83;;;;;;;;;;5014909;28;20057;-58
2023/06/02 05:28:23;;;;;;;15.25;7.43;;;;;;;;;;5014253;28;20098;-58
2023/06/02 05:30:49;;;;;;;18.65;3.25;;;;;;;;;;4997532;28;20050;-57
2023/06/02 05:33:15;;;;;;;18.48;3.53;;;;;;;;;;5014210;28;20140;-57
2023/06/02 05:35:41;;;;;;;12.65;2.35;;;;;;;;;;5014785;28;20049;-58
2023/06/02 05:38:07;;;;;;;17.75;3.60;;;;;;;;;;5014671;28;20434;-58
2023/06/02 05:40:33;;;;;;;15.85;3.00;;;;;;;;;;5014333;28;20042;-58
2023/06/02 05:42:59;;;;;;;17.52;3.45;;;;;;;;;;5013027;28;20049;-58
2023/06/02 05:45:25;;;;;;;18.73;3.20;;;;;;;;;;5014593;28;20461;-58
2023/06/02 05:47:51;;;;;;;15.57;4.07;;;;;;;;;;5014692;28;20052;-58
2023/06/02 05:50:17;;;;;;;15.57;3.47;;;;;;;;;;5014292;28;20046;-58
2023/06/02 05:52:43;;;;;;;16.85;3.05;;;;;;;;;;5014508;28;20053;-59
2023/06/02 05:55:09;;;;;;;12.90;3.40;;;;;;;;;;5014393;28;20046;-58
2023/06/02 05:57:37;;;;;;;18.67;2.70;;;;;;;;;;5013721;28;20080;-58
2023/06/02 06:00:04;;;;;;;20.55;4.10;;;;;;;;;;5014466;28;20050;-58
2023/06/02 06:02:30;;;;;;;20.55;3.28;;;;;;;;;;5013998;28;20061;-58
2023/06/02 06:04:56;;;;;;;15.85;2.78;;;;;;;;;;5014303;28;20060;-58
2023/06/02 06:07:22;;;;;;;21.63;5.55;;;;;;;;;;5014046;28;20061;-58
2023/06/02 06:09:48;;;;;;;13.82;3.50;;;;;;;;;;5013975;28;20053;-58
2023/06/02 06:12:14;;;;;;;17.60;2.72;;;;;;;;;;5013470;28;20557;-58
2023/06/02 06:14:40;;;;;;;15.52;2.97;;;;;;;;;;5014025;28;20502;-58
2023/06/02 06:17:06;;;;;;;15.88;2.75;;;;;;;;;;4996691;28;20058;-58
2023/06/02 06:19:32;;;;;;;16.92;2.55;;;;;;;;;;4996257;28;20421;-58
2023/06/02 06:21:58;;;;;;;20.25;3.33;;;;;;;;;;5013927;28;20137;-58
2023/06/02 06:24:24;;;;;;;17.63;3.50;;;;;;;;;;5013615;28;20077;-58
2023/06/02 06:26:50;;;;;;;20.67;3.08;;;;;;;;;;4995874;28;20129;-58
2023/06/02 06:29:16;;;;;;;13.65;3.20;;;;;;;;;;5013713;28;20100;-58
2023/06/02 06:31:42;;;;;;;20.50;3.83;;;;;;;;;;5013616;28;20049;-59
2023/06/02 06:34:09;;;;;;;13.98;2.88;;;;;;;;;;5013724;28;20046;-58
2023/06/02 06:36:36;;;;;;;22.75;3.47;;;;;;;;;;5013365;28;20053;-58
2023/06/02 06:39:02;;;;;;;16.83;3.08;;;;;;;;;;5013452;28;20560;-58
2023/06/02 06:41:28;;;;;;;19.65;3.20;;;;;;;;;;5011724;28;20054;-58
2023/06/02 06:43:54;;;;;;;20.42;4.15;;;;;;;;;;5013565;28;20053;-58
2023/06/02 06:46:20;;;;;;;20.20;3.63;;;;;;;;;;5012300;28;20052;-58
2023/06/02 06:48:46;;;;;;;17.58;3.58;;;;;;;;;;5013511;28;20057;-58
2023/06/02 06:51:13;;;;;;;23.25;3.47;;;;;;;;;;4996096;28;20053;-58
2023/06/02 06:53:39;;;;;;;16.00;3.20;;;;;;;;;;5013221;28;20041;-61
2023/06/02 06:56:05;;;;;;;25.55;3.67;;;;;;;;;;4995831;28;20065;-58
2023/06/02 06:58:31;;;;;;;15.20;3.55;;;;;;;;;;5013179;28;20073;-58
2023/06/02 07:00:58;;;;;;;23.10;4.53;;;;;;;;;;5012183;28;20049;-59
2023/06/02 07:03:24;;;;;;;12.88;2.63;;;;;;;;;;5011384;28;20529;-58
2023/06/02 07:05:50;;;;;;;24.30;3.63;;;;;;;;;;4995880;28;20054;-58
2023/06/02 07:08:16;;;;;;;16.48;3.88;;;;;;;;;;5012490;28;20137;-58
2023/06/02 07:10:43;;;;;;;13.70;3.35;;;;;;;;;;5012967;28;20620;-58
2023/06/02 07:13:09;;;;;;;18.10;3.80;;;;;;;;;;5013009;28;20041;-58
2023/06/02 07:15:36;;;;;;;16.30;4.50;;;;;;;;;;5012809;28;20165;-59
2023/06/02 07:18:02;;;;;;;18.15;4.38;;;;;;;;;;5012928;28;20072;-58
2023/06/02 07:20:28;;;;;;;13.52;3.78;;;;;;;;;;4994971;28;20498;-58
2023/06/02 07:22:55;;;;;;;19.55;4.53;;;;;;;;;;5012294;28;20048;-58
2023/06/02 07:25:21;;;;;;;19.77;3.30;;;;;;;;;;5012459;28;20409;-58
2023/06/02 07:27:47;;;;;;;19.27;3.92;;;;;;;;;;5012932;28;20120;-58
2023/06/02 07:30:13;;;;;;;20.70;3.95;;;;;;;;;;5012369;28;20399;-59
2023/06/02 07:32:39;;;;;;;22.10;4.55;;;;;;;;;;5012768;28;20041;-59
2023/06/02 07:35:05;;;;;;;25.52;4.53;;;;;;;;;;5012597;28;20516;-58
2023/06/02 07:37:32;;;;;;;17.75;3.75;;;;;;;;;;5011949;28;20052;-58
2023/06/02 07:39:58;;;;;;;21.13;3.78;;;;;;;;;;5012413;28;20207;-59
2023/06/02 07:42:24;;;;;;;21.02;3.90;;;;;;;;;;5012183;28;20049;-58
2023/06/02 07:44:50;;;;;;;16.45;3.63;;;;;;;;;;5012417;28;20513;-58
2023/06/02 07:47:16;;;;;;;13.23;3.33;;;;;;;;;;5012203;28;20405;-58
2023/06/02 07:49:42;;;;;;;15.15;4.13;;;;;;;;;;5012364;28;20406;-59
2023/06/02 07:52:08;;;;;;;23.95;4.68;;;;;;;;;;5010781;28;20108;-58
2023/06/02 07:54:34;;;;;;;27.73;4.38;;;;;;;;;;4994751;28;20081;-58
2023/06/02 07:57:00;;;;;;;18.23;3.72;;;;;;;;;;5012234;28;20045;-59
2023/06/02 07:59:26;;;;;;;23.75;4.00;;;;;;;;;;5012035;28;20050;-58
2023/06/02 08:01:52;;;;;;;23.92;4.38;;;;;;;;;;5011000;28;20133;-58
2023/06/02 08:04:18;;;;;;;17.98;3.72;;;;;;;;;;5012027;28;20528;-59
2023/06/02 08:06:44;;;;;;;19.45;3.72;;;;;;;;;;5011825;28;20103;-60
2023/06/02 08:09:10;;;;;;;17.13;3.95;;;;;;;;;;5012121;28;20045;-59
2023/06/02 08:11:36;;;;;;;25.42;4.53;;;;;;;;;;5011850;28;20544;-59
2023/06/02 08:14:02;;;;;;;21.50;4.25;;;;;;;;;;5012295;28;20180;-59
2023/06/02 08:16:29;;;;;;;22.00;4.97;;;;;;;;;;5012230;28;20061;-59
2023/06/02 08:18:55;;;;;;;17.15;4.43;;;;;;;;;;5012157;28;20082;-58
2023/06/02 08:21:21;;;;;;;17.38;3.75;;;;;;;;;;5011336;28;20050;-59
2023/06/02 08:23:47;;;;;;;15.98;4.63;;;;;;;;;;5012261;28;20503;-59
2023/06/02 08:26:13;;;;;;;21.65;3.58;;;;;;;;;;4994669;28;20050;-62
2023/06/02 08:28:41;;;;;;;22.38;3.97;;;;;;;;;;5012066;28;20049;-59
2023/06/02 08:31:09;;;;;;;19.75;4.80;;;;;;;;;;4994773;28;20093;-59
2023/06/02 08:33:35;;;;;;;20.02;3.90;;;;;;;;;;5011935;28;20461;-59
2023/06/02 08:36:06;;;;;;;24.33;4.60;;;;;;;;;;5011541;28;20084;-59
2023/06/02 08:38:32;;;;;;;16.42;4.50;;;;;;;;;;4994661;28;20050;-59
2023/06/02 08:40:58;;;;;;;22.10;4.53;;;;;;;;;;4994442;28;20107;-59
2023/06/02 08:43:24;;;;;;;28.60;5.45;;;;;;;;;;5010557;28;20072;-60
2023/06/02 08:45:50;;;;;;;16.00;3.92;;;;;;;;;;5011989;28;20437;-60
2023/06/02 08:48:18;;;;;;;17.45;3.92;;;16.90;99.90;;;;;;4994084;28;20494;-59
2023/06/02 08:50:46;;;;;;;21.13;4.82;;;;;;;;;;5011336;28;20128;-59
2023/06/02 08:53:14;;;;;;;16.70;3.88;;;;;;;;;;4994572;28;20486;-59
2023/06/02 08:55:41;;;;;;;16.83;3.35;;;;;;;;;;5011826;28;20045;-59
2023/06/02 08:58:10;;;;;;;15.50;3.55;;;;;;;;;;5011851;28;20081;-60
2023/06/02 09:00:37;;;;;;;17.23;3.58;;;;;;;;;;5011390;28;20081;-60
2023/06/02 09:03:03;;;;;;;18.65;3.38;;;;;;;;;;5011876;28;20064;-59
2023/06/02 09:05:29;;;;;;;16.70;2.97;;;;;;;;;;5011207;28;20140;-59
2023/06/02 09:08:09;;;;;;;16.88;4.00;;;;;;;;;;4994578;28;20121;-59
2023/06/02 09:10:41;;;;;;;19.65;4.32;;;;;;;;;;5014974;28;20038;-58
2023/06/02 09:13:11;;;;;;;18.13;3.30;;;;;;;;;;4997829;28;20062;-60
2023/06/02 09:15:54;;;;;;;11.07;2.58;;;;;;;;;;5014826;28;20062;-59
2023/06/02 09:18:20;;;;;;;13.13;3.05;;;;;;;;;;4997691;28;20050;-60
2023/06/02 09:20:48;;;;;;;15.73;3.92;;;;;;;;;;5014842;28;20042;-60
2023/06/02 09:23:14;;;;;;;12.85;3.85;;;;;;;;;;5014719;28;20049;-60
2023/06/02 09:25:40;;;;;;;13.45;3.58;;;;;;;;;;5014989;28;20188;-60
2023/06/02 09:28:09;;;;;;;14.43;2.70;;;;;;;;;;5014910;28;20054;-60
2023/06/02 09:30:35;;;;;;;17.52;3.95;;;;;;;;;;5014883;28;20056;-61
2023/06/02 09:33:06;;;;;;;15.13;2.92;;;18.10;99.90;;;;;;5015005;28;20050;-60
2023/06/02 09:35:40;;;;;;;13.35;2.58;;;;;;;;;;5014321;28;20148;-60
2023/06/02 09:38:07;;;;;;;14.25;2.90;;;;;;;;;;5014708;28;20050;-60
2023/06/02 09:40:35;;;;;;;14.75;3.28;;;18.30;99.90;;;;;;5014183;28;20568;-60
2023/06/02 09:43:03;;;;;;;12.20;2.97;;;;;;;;;;4997177;28;20081;-60
2023/06/02 09:45:29;;;;;;;14.70;2.97;;;;;;;;;;5014393;28;20176;-60
2023/06/02 09:47:55;;;;;;;17.02;2.83;;;;;;;;;;5014288;28;20046;-60
2023/06/02 09:50:31;;;;;;;13.02;2.45;;;;;;;;;;5014330;28;20045;-60
2023/06/02 09:53:01;;;;;;;11.80;3.15;;;;;;;;;;5014500;28;20053;-60
2023/06/02 09:55:27;;;;;;;13.07;2.63;;;;;;;;;;4997093;28;20049;-60
2023/06/02 09:57:53;;;;;;;13.60;2.80;;;;;;;;;;5014349;28;20446;-60
2023/06/02 10:00:20;;;;;;;11.45;2.22;;;;;;;;;;5014136;28;20049;-60
2023/06/02 10:02:46;;;;;;;11.98;2.33;;;;;;;;;;5013862;28;20083;-60
2023/06/02 10:05:12;;;;;;;15.70;2.65;;;;;;;;;;5014212;28;20065;-60
2023/06/02 10:08:00;;;;;;;9.85;2.13;;;18.60;99.90;;;;;;5014012;28;20095;-60
2023/06/02 10:10:51;;;;;;;11.10;2.30;;;18.10;99.90;;;;;;4996520;28;20054;-60
2023/06/02 10:13:26;;;;;;;8.57;1.98;;;;;;;;;;5013814;28;20057;-60
2023/06/02 10:16:10;;;;;;;11.50;1.95;;;;;;;;;;5014081;28;20050;-60
2023/06/02 10:18:46;;;;;;;9.57;2.10;;;18.40;99.90;;;;;;5013495;28;20183;-60
2023/06/02 10:21:27;;;;;;;7.13;1.83;;;;;;;;;;5013844;28;20046;-60
2023/06/02 10:24:12;;;;;;;7.78;1.80;;;;;;;;;;5013841;28;20548;-60
2023/06/02 10:27:08;;;;;;;13.70;2.80;;;19.70;99.90;;;;;;5013770;28;20058;-60
2023/06/02 10:29:35;;;;;;;14.35;2.55;;;;;;;;;;5013646;28;20092;-60
2023/06/02 10:32:21;;;;;;;11.38;1.92;;;19.20;99.90;;;;;;5013154;28;20046;-60
2023/06/02 10:34:51;;;;;;;10.98;2.83;;;18.90;99.90;;;;;;4996357;28;20046;-60
2023/06/02 10:37:21;;;;;;;6.70;1.85;;;;;;;;;;5013286;28;20490;-61
2023/06/02 10:39:47;;;;;;;9.68;1.88;;;;;;;;;;5013459;28;20049;-60
2023/06/02 10:42:15;;;;;;;6.32;2.05;;;;;;;;;;5013374;28;20045;-61
2023/06/02 10:44:41;;;;;;;7.82;1.83;;;;;;;;;;4996108;28;20057;-60
2023/06/02 10:47:19;;;;;;;4.85;1.60;;;18.70;99.90;;;;;;5012980;28;20089;-60
2023/06/02 10:50:00;;;;;;;4.75;1.60;;;19.20;99.90;;;;;;5013598;28;20049;-60
2023/06/02 10:52:27;;;;;;;6.90;1.60;;;;;;;;;;4995797;28;20049;-60
2023/06/02 10:55:08;;;;;;;5.50;1.38;;;;;;;;;;5013251;28;20046;-60
2023/06/02 10:57:52;;;;;;;8.55;1.73;;;;;;;;;;5013011;28;20532;-60
2023/06/02 11:00:31;;;;;;;2.88;1.30;;;;;;;;;;5012564;28;20042;-61
2023/06/02 11:02:57;;;;;;;4.05;1.40;;;;;;;;;;5012907;28;20061;-61
2023/06/02 11:05:24;;;;;;;4.75;1.98;;;19.60;99.90;;;;;;5012777;28;20417;-61
2023/06/02 11:08:15;;;;;;;4.95;1.30;;;19.50;99.90;;;;;;5012977;28;20073;-61
2023/06/02 11:10:47;;;;;;;7.07;1.73;;;;;;;;;;5013135;28;20050;-61
2023/06/02 11:13:17;;;;;;;7.15;1.60;;;;;;;;;;5012848;28;20482;-62
2023/06/02 11:15:52;;;;;;;10.82;2.42;;;;;;;;;;5012697;28;20057;-61
2023/06/02 11:18:33;;;;;;;4.35;1.40;;;;;;;;;;5012558;28;20054;-61
2023/06/02 11:21:00;;;;;;;3.95;1.60;;;;;;;;;;5013027;28;20053;-61
2023/06/02 11:23:26;;;;;;;5.95;1.85;;;20.60;99.90;;;;;;4995136;28;20046;-60
2023/06/02 11:26:12;;;;;;;5.47;2.05;;;;;;;;;;4995415;28;20045;-61
2023/06/02 11:28:38;;;;;;;6.47;1.75;;;;;;;;;;5012491;28;20454;-60
2023/06/02 11:31:04;;;;;;;4.78;1.85;;;;;;;;;;5011711;28;20554;-61
2023/06/02 11:33:33;;;;;;;7.80;1.52;;;;;;;;;;4995070;28;20056;-60
2023/06/02 11:35:59;;;;;;;5.00;1.48;;;;;;;;;;5012786;28;20510;-61
2023/06/02 11:38:31;;;;;;;4.38;1.33;;;;;;;;;;5012334;28;20053;-60
2023/06/02 11:41:08;;;;;;;3.70;1.27;;;;;;;;;;5011303;28;20157;-61
2023/06/02 11:43:34;;;;;;;7.32;1.30;;;;;;;;;;4994889;28;20050;-60
2023/06/02 11:46:08;;;;;;;4.45;1.50;;;;;;;;;;5012258;28;20132;-61
2023/06/02 11:48:38;;;;;;;5.50;1.30;;;20.60;99.90;;;;;;5012333;28;20050;-60
2023/06/02 11:51:04;;;;;;;4.18;1.30;;;;;;;;;;5012377;28;20498;-61
2023/06/02 11:53:30;;;;;;;5.22;1.30;;;;;;;;;;4994542;28;20522;-61
2023/06/02 11:55:56;;;;;;;6.97;1.30;;;20.90;99.90;;;;;;5012362;28;20085;-61
2023/06/02 11:58:27;;;;;;;5.35;1.40;;;;;;;;;;5011959;28;20046;-60
2023/06/02 12:00:54;;;;;;;4.15;1.17;;;;;;;;;;5012357;28;20071;-60
2023/06/02 12:03:20;;;;;;;3.95;1.50;;;;;;;;;;5011986;28;20065;-61
2023/06/02 12:05:48;;;;;;;4.75;1.70;;;;;;;;;;5012140;28;20490;-60
2023/06/02 12:08:22;;;;;;;4.53;1.30;;;;;;;;;;4995059;28;20042;-61
2023/06/02 12:10:48;;;;;;;4.57;1.05;;;;;;;;;;5012168;28;20060;-61
2023/06/02 12:13:24;;;;;;;4.80;0.95;;;;;;;;;;5011684;28;20057;-60
2023/06/02 12:15:50;;;;;;;6.80;1.55;;;;;;;;;;4994940;28;20108;-60
2023/06/02 12:18:27;;;;;;;4.32;1.20;;;;;;;;;;5011959;28;20045;-61
2023/06/02 12:20:53;;;;;;;5.18;1.48;;;;;;;;;;4994453;28;20042;-61
2023/06/02 12:23:19;;;;;;;5.03;1.27;;;;;;;;;;4994245;28;20096;-61
2023/06/02 12:25:59;;;;;;;3.67;1.50;;;;;;;;;;5012198;28;20045;-60
2023/06/02 12:28:25;;;;;;;2.90;1.08;;;;;;;;;;5011759;28;20100;-60
2023/06/02 12:30:51;;;;;;;5.72;1.15;;;;;;;;;;5011898;28;20053;-61
2023/06/02 12:33:17;;;;;;;6.57;1.17;;;;;;;;;;4994397;28;20134;-61
2023/06/02 12:35:43;;;;;;;2.35;0.95;;;;;;;;;;5011919;28;20093;-61
2023/06/02 12:38:09;;;;;;;3.45;0.90;;;;;;;;;;5012121;28;20058;-61
2023/06/02 12:40:37;;;;;;;3.60;1.10;;;;;;;;;;5011787;28;20042;-60
2023/06/02 12:43:03;;;;;;;2.60;1.33;;;;;;;;;;5011620;28;20046;-61
2023/06/02 12:45:30;;;;;;;5.72;1.45;;;;;;;;;;5015383;28;20046;-61
2023/06/02 12:47:57;;;;;;;3.30;0.90;;;;;;;;;;4998442;28;20058;-61
2023/06/02 12:50:23;;;;;;;4.18;1.13;;;;;;;;;;5015500;28;20049;-61
2023/06/02 12:52:53;;;;;;;3.58;0.90;;;;;;;;;;5015720;28;20081;-60
2023/06/02 12:55:19;;;;;;;3.35;1.00;;;;;;;;;;4997712;28;20513;-61
2023/06/02 12:57:46;;;;;;;5.97;1.00;;;;;;;;;;5015199;28;20054;-61
2023/06/02 13:00:13;;;;;;;2.20;1.00;;;;;;;;;;5015496;28;20053;-60
2023/06/02 13:02:41;;;;;;;4.13;1.60;;;;;;;;;;5015569;28;20112;-61
2023/06/02 13:05:08;;;;;;;2.05;1.00;;;;;;;;;;5015589;28;20460;-61
2023/06/02 13:07:36;;;;;;;3.92;1.05;;;21.40;99.90;;;;;;5015307;28;20414;-61
2023/06/02 13:10:02;;;;;;;6.93;1.35;;;;;;;;;;4981715;28;20049;-61
2023/06/02 13:12:28;;;;;;;3.35;1.20;;;;;;;;;;5014645;28;20453;-61
2023/06/02 13:14:54;;;;;;;8.38;1.95;;;;;;;;;;5015115;28;20483;-61
2023/06/02 13:17:21;;;;;;;4.50;1.70;;;;;;;;;;5014833;28;20046;-61
2023/06/02 13:19:47;;;;;;;2.90;1.10;;;;;;;;;;5015214;28;20474;-61
2023/06/02 13:22:16;;;;;;;5.35;1.23;;;;;;;;;;5015008;28;20084;-62
2023/06/02 13:24:42;;;;;;;5.38;1.25;;;;;;;;;;5015155;28;20168;-60
2023/06/02 13:27:08;;;;;;;5.20;1.42;;;;;;;;;;5014757;28;20060;-62
2023/06/02 13:29:35;;;;;;;3.72;1.13;;;;;;;;;;5014783;28;20133;-62
2023/06/02 13:32:01;;;;;;;4.18;1.30;;;;;;;;;;5014762;28;20065;-61
2023/06/02 13:34:30;;;;;;;3.80;1.50;;;;;;;;;;5014952;28;20041;-61
2023/06/02 13:36:56;;;;;;;5.03;1.45;;;20.80;99.90;;;;;;4997687;28;20046;-61
2023/06/02 13:39:22;;;;;;;4.18;1.35;;;;;;;;;;5014381;28;20467;-61
2023/06/02 13:41:48;;;;;;;4.45;1.23;;;;;;;;;;5014280;28;20141;-61
2023/06/02 13:44:17;;;;;;;4.72;1.48;;;;;;;;;;5014265;28;20046;-62
2023/06/02 13:46:43;;;;;;;5.05;1.17;;;;;;;;;;5014879;28;20068;-61
2023/06/02 13:49:10;;;;;;;5.47;1.45;;;;;;;;;;5014634;28;20128;-61
2023/06/02 13:51:36;;;;;;;5.00;1.33;;;;;;;;;;4997090;28;20176;-61
2023/06/02 13:54:01;;;;;;;6.47;2.30;;;21.80;99.90;;;;;;4996928;28;20486;-62
2023/06/02 13:56:28;;;;;;;4.50;1.38;;;;;;;;;;5013786;28;20053;-61
2023/06/02 13:58:54;;;;;;;8.32;1.48;;;21.80;99.90;;;;;;5014249;28;20168;-61
2023/06/02 14:01:20;;;;;;;4.78;1.60;;;;;;;;;;5014151;28;20046;-61
2023/06/02 14:03:47;;;;;;;4.00;1.60;;;;;;;;;;4996919;28;20064;-61
2023/06/02 14:06:13;;;;;;;6.43;1.95;;;;;;;;;;5014288;28;20052;-63
2023/06/02 14:08:39;;;;;;;5.05;1.65;;;;;;;;;;5014203;28;20053;-64
2023/06/02 14:11:05;;;;;;;7.03;1.73;;;;;;;;;;5014257;28;20042;-61
2023/06/02 14:13:31;;;;;;;6.15;2.17;;;;;;;;;;5012652;28;20042;-61
2023/06/02 14:15:57;;;;;;;6.65;1.98;;;;;;;;;;5013996;28;20168;-61
2023/06/02 14:18:23;;;;;;;4.68;1.80;;;;;;;;;;4996661;28;20405;-61
2023/06/02 14:20:49;;;;;;;4.97;2.30;;;;;;;;;;5013928;28;20198;-61
2023/06/02 14:23:15;;;;;;;5.18;1.80;;;;;;;;;;5013329;28;20085;-59
2023/06/02 14:25:42;;;;;;;6.90;1.80;;;;;;;;;;5012711;28;20092;-62
2023/06/02 14:28:09;;;;;;;5.90;1.90;;;;;;;;;;5012490;28;20513;-62